createdAt,value
2018-03-31T00:03:02.418Z,93345.06
2018-03-31T00:06:05.029Z,93350.06
2018-03-31T00:09:08.286Z,93349.73
2018-03-31T00:12:10.796Z,93344.91
2018-03-31T00:15:14.364Z,93348.55
2018-03-31T00:18:16.878Z,93351.39
2018-03-31T00:21:20.141Z,93353.92
2018-03-31T00:24:22.630Z,93355.02
2018-03-31T00:27:25.110Z,93355.84
2018-03-31T00:30:27.590Z,93348.89
2018-03-31T00:33:30.061Z,93351.34
2018-03-31T00:36:32.545Z,93347.70
2018-03-31T00:39:35.030Z,93340.73
2018-03-31T00:42:37.514Z,93332.72
2018-03-31T00:45:40.025Z,93339.25
2018-03-31T00:48:42.550Z,93335.42
2018-03-31T00:51:45.950Z,93332.74
2018-03-31T00:54:48.464Z,93341.12
2018-03-31T00:58:00.261Z,93340.59
2018-03-31T01:01:02.777Z,93331.78
2018-03-31T01:04:05.267Z,93345.45
2018-03-31T01:07:07.761Z,93328.24
2018-03-31T01:10:10.470Z,93328.94
2018-03-31T01:13:12.980Z,93335.61
2018-03-31T01:16:15.484Z,93328.12
2018-03-31T01:19:18.116Z,93320.29
2018-03-31T01:22:20.592Z,93318.42
2018-03-31T01:25:23.981Z,93333.38
2018-03-31T01:28:26.456Z,93334.59
2018-03-31T01:31:28.958Z,93335.96
2018-03-31T01:34:32.250Z,93320.39
2018-03-31T01:37:34.779Z,93313.75
2018-03-31T01:40:37.265Z,93322.19
2018-03-31T01:43:39.745Z,93329.88
2018-03-31T01:46:42.225Z,93343.31
2018-03-31T01:49:44.703Z,93348.52
2018-03-31T01:52:47.182Z,93354.07
2018-03-31T01:55:49.664Z,93344.64
2018-03-31T01:58:52.124Z,93344.46
2018-03-31T02:01:54.617Z,93331.63
2018-03-31T02:04:57.093Z,93328.45
2018-03-31T02:08:00.130Z,93321.85
2018-03-31T02:11:03.430Z,93325.88
2018-03-31T02:14:06.677Z,93329.22
2018-03-31T02:17:09.192Z,93322.73
2018-03-31T02:20:11.660Z,93318.19
2018-03-31T02:23:14.136Z,93317.86
2018-03-31T02:26:16.645Z,93305.19
2018-03-31T02:29:19.892Z,93300.89
2018-03-31T02:32:22.396Z,93300.42
2018-03-31T02:35:24.890Z,93305.70
2018-03-31T02:38:28.138Z,93298.74
2018-03-31T02:41:30.621Z,93302.32
2018-03-31T02:44:33.096Z,93301.27
2018-03-31T02:47:35.565Z,93317.17
2018-03-31T02:50:38.046Z,93321.72
2018-03-31T02:53:40.541Z,93325.56
2018-03-31T02:56:43.017Z,93328.83
2018-03-31T02:59:45.533Z,93328.91
2018-03-31T03:02:48.006Z,93331.90
2018-03-31T03:05:50.490Z,93329.41
2018-03-31T03:08:53.746Z,93326.39
2018-03-31T03:11:56.286Z,93321.51
2018-03-31T03:14:59.544Z,93323.87
2018-03-31T03:18:02.032Z,93319.59
2018-03-31T03:21:04.508Z,93314.47
2018-03-31T03:24:06.985Z,93311.39
2018-03-31T03:27:09.482Z,93302.02
2018-03-31T03:30:13.620Z,93303.50
2018-03-31T03:33:16.104Z,93304.60
2018-03-31T03:36:18.581Z,93303.83
2018-03-31T03:39:21.045Z,93307.67
2018-03-31T03:42:24.316Z,93309.67
2018-03-31T03:45:26.776Z,93318.19
2018-03-31T03:48:29.257Z,93316.81
2018-03-31T03:51:31.733Z,93311.03
2018-03-31T03:54:34.208Z,93311.75
2018-03-31T03:57:36.682Z,93305.91
2018-03-31T04:00:39.148Z,93304.92
2018-03-31T04:03:41.651Z,93312.00
2018-03-31T04:06:44.152Z,93304.41
2018-03-31T04:09:47.386Z,93312.41
2018-03-31T04:12:49.888Z,93315.20
2018-03-31T04:15:52.377Z,93310.88
2018-03-31T04:18:54.913Z,93312.83
2018-03-31T04:21:57.381Z,93308.52
2018-03-31T04:25:00.617Z,93305.34
2018-03-31T04:28:03.141Z,93307.59
2018-03-31T04:31:05.636Z,93312.27
2018-03-31T04:34:08.880Z,93316.41
2018-03-31T04:37:11.354Z,93322.97
2018-03-31T04:40:13.834Z,93333.56
2018-03-31T04:43:16.353Z,93334.24
2018-03-31T04:46:18.808Z,93347.23
2018-03-31T04:49:21.313Z,93344.37
2018-03-31T04:52:24.557Z,93337.76
2018-03-31T04:55:27.033Z,93336.72
2018-03-31T04:58:29.517Z,93305.75
2018-03-31T05:01:31.999Z,93290.33
2018-03-31T05:04:35.238Z,93290.64
2018-03-31T05:07:38.484Z,93300.59
2018-03-31T05:10:40.957Z,93322.20
2018-03-31T05:13:43.448Z,93335.12
2018-03-31T05:16:45.931Z,93338.30
2018-03-31T05:19:48.412Z,93330.93
2018-03-31T05:22:51.664Z,93319.70
2018-03-31T05:25:54.144Z,93318.88
2018-03-31T05:28:56.612Z,93312.41
2018-03-31T05:31:59.851Z,93330.38
2018-03-31T05:35:02.632Z,93359.03
2018-03-31T05:38:05.118Z,93362.22
2018-03-31T05:41:07.593Z,93367.74
2018-03-31T05:44:10.078Z,93366.12
2018-03-31T05:47:12.634Z,93368.57
2018-03-31T05:50:15.108Z,93367.47
2018-03-31T05:53:17.689Z,93359.23
2018-03-31T05:56:20.252Z,93346.45
2018-03-31T05:59:23.492Z,93342.69
2018-03-31T06:02:25.974Z,93339.28
2018-03-31T06:05:28.449Z,93333.29
2018-03-31T06:08:30.918Z,93337.08
2018-03-31T06:11:33.415Z,93340.02
2018-03-31T06:14:35.889Z,93341.36
2018-03-31T06:17:38.373Z,93346.77
2018-03-31T06:20:40.865Z,93356.25
2018-03-31T06:23:43.343Z,93363.31
2018-03-31T06:26:46.028Z,93351.41
2018-03-31T06:29:48.509Z,93348.71
2018-03-31T06:32:50.989Z,93351.72
2018-03-31T06:35:53.461Z,93352.36
2018-03-31T06:38:55.940Z,93358.73
2018-03-31T06:41:58.460Z,93362.50
2018-03-31T06:45:01.704Z,93356.47
2018-03-31T06:48:04.192Z,93367.80
2018-03-31T06:51:06.686Z,93368.20
2018-03-31T06:54:09.155Z,93363.66
2018-03-31T06:57:11.649Z,93359.44
2018-03-31T07:00:14.152Z,93357.63
2018-03-31T07:03:18.161Z,93362.34
2018-03-31T07:06:20.645Z,93360.16
2018-03-31T07:09:23.136Z,93355.12
2018-03-31T07:12:26.402Z,93344.55
2018-03-31T07:15:30.460Z,93344.53
2018-03-31T07:18:32.922Z,93344.03
2018-03-31T07:21:36.254Z,93341.16
2018-03-31T07:24:38.748Z,93340.02
2018-03-31T07:27:42.207Z,93351.94
2018-03-31T07:30:45.238Z,93349.23
2018-03-31T07:33:47.756Z,93350.66
2018-03-31T07:36:50.597Z,93345.27
2018-03-31T07:39:53.101Z,93346.25
2018-03-31T07:42:56.079Z,93340.39
2018-03-31T07:45:58.662Z,93341.59
2018-03-31T07:49:01.713Z,93340.09
2018-03-31T07:52:04.507Z,93343.80
2018-03-31T07:55:08.192Z,93353.39
2018-03-31T07:58:21.096Z,93345.11
2018-03-31T08:01:24.821Z,93351.81
2018-03-31T08:04:27.358Z,93354.98
2018-03-31T08:07:29.836Z,93343.11
2018-03-31T08:10:32.320Z,93343.85
2018-03-31T08:13:34.817Z,93336.52
2018-03-31T08:16:37.314Z,93336.48
2018-03-31T08:19:39.789Z,93338.11
2018-03-31T08:22:42.368Z,93343.92
2018-03-31T08:25:44.950Z,93335.37
2018-03-31T08:28:47.430Z,93329.87
2018-03-31T08:31:50.024Z,93336.13
2018-03-31T08:34:54.017Z,93328.88
2018-03-31T08:37:56.492Z,93334.41
2018-03-31T08:40:58.985Z,93331.80
2018-03-31T08:44:01.466Z,93323.06
2018-03-31T08:47:04.046Z,93323.48
2018-03-31T08:50:07.238Z,93324.92
2018-03-31T08:53:09.722Z,93319.80
2018-03-31T08:56:12.355Z,93311.78
2018-03-31T08:59:15.032Z,93308.55
2018-03-31T09:02:18.304Z,93308.80
2018-03-31T09:05:20.802Z,93303.28
2018-03-31T09:08:25.066Z,93297.12
2018-03-31T09:11:27.556Z,93292.28
2018-03-31T09:14:30.818Z,93287.64
2018-03-31T09:20:41.240Z,93288.28
2018-03-31T09:23:43.775Z,93292.78
2018-03-31T09:26:47.014Z,93292.28
2018-03-31T09:29:49.495Z,93290.54
2018-03-31T09:32:51.984Z,93297.95
2018-03-31T09:35:54.457Z,93308.47
2018-03-31T09:38:56.988Z,93315.59
2018-03-31T09:42:00.321Z,93323.73
2018-03-31T09:45:02.838Z,93325.75
2018-03-31T09:48:18.408Z,93323.86
2018-03-31T09:51:23.548Z,93329.85
2018-03-31T09:54:26.029Z,93327.75
2018-03-31T09:57:28.496Z,93320.56
2018-03-31T10:00:35.802Z,93323.69
2018-03-31T10:03:38.327Z,93325.44
2018-03-31T10:06:40.898Z,93316.21
2018-03-31T10:09:44.299Z,93316.31
2018-03-31T10:12:47.574Z,93319.81
2018-03-31T10:15:50.037Z,93312.59
2018-03-31T10:18:52.518Z,93312.56
2018-03-31T10:21:55.022Z,93310.61
2018-03-31T10:24:57.513Z,93312.88
2018-03-31T10:28:00.298Z,93300.55
2018-03-31T10:31:02.777Z,93293.66
2018-03-31T10:34:06.026Z,93281.90
2018-03-31T10:37:08.550Z,93280.02
2018-03-31T10:40:11.816Z,93285.85
2018-03-31T10:43:14.414Z,93287.11
2018-03-31T10:46:17.025Z,93283.18
2018-03-31T10:49:19.528Z,93277.30
2018-03-31T10:52:22.014Z,93281.95
2018-03-31T10:55:25.281Z,93280.17
2018-03-31T10:58:27.757Z,93279.73
2018-03-31T11:01:30.221Z,93286.06
2018-03-31T11:04:32.701Z,93281.16
2018-03-31T11:07:35.173Z,93279.37
2018-03-31T11:10:38.432Z,93280.70
2018-03-31T11:13:40.921Z,93273.64
2018-03-31T11:16:43.453Z,93272.08
2018-03-31T11:19:45.924Z,93277.38
2018-03-31T11:22:48.410Z,93281.32
2018-03-31T11:25:50.906Z,93278.59
2018-03-31T11:28:53.373Z,93284.19
2018-03-31T11:31:55.892Z,93289.87
2018-03-31T11:34:58.385Z,93286.67
2018-03-31T11:38:00.892Z,93279.34
2018-03-31T11:41:03.372Z,93289.28
2018-03-31T11:44:05.845Z,93285.84
2018-03-31T11:47:08.329Z,93288.21
2018-03-31T11:50:10.818Z,93278.52
2018-03-31T11:53:13.328Z,93271.82
2018-03-31T11:56:15.801Z,93266.69
2018-03-31T11:59:18.307Z,93261.69
2018-03-31T12:02:20.773Z,93260.03
2018-03-31T12:05:23.484Z,93263.70
2018-03-31T12:08:27.811Z,93269.03
2018-03-31T12:11:30.269Z,93263.58
2018-03-31T12:14:32.750Z,93258.25
2018-03-31T12:17:35.218Z,93254.46
2018-03-31T12:20:37.697Z,93255.16
2018-03-31T12:23:41.052Z,93257.95
2018-03-31T12:26:43.556Z,93258.08
2018-03-31T12:30:00.090Z,93257.06
2018-03-31T12:33:03.756Z,93251.59
2018-03-31T12:36:06.249Z,93246.45
2018-03-31T12:39:08.754Z,93242.45
2018-03-31T12:42:11.229Z,93239.70
2018-03-31T12:45:13.700Z,93234.02
2018-03-31T12:48:16.180Z,93235.07
2018-03-31T12:51:18.696Z,93239.52
2018-03-31T12:54:21.954Z,93236.17
2018-03-31T12:57:24.497Z,93234.41
2018-03-31T13:00:26.921Z,93238.98
2018-03-31T13:03:29.408Z,93235.67
2018-03-31T13:06:31.870Z,93227.78
2018-03-31T13:09:34.346Z,93227.67
2018-03-31T13:12:36.813Z,93227.50
2018-03-31T13:15:39.328Z,93228.39
2018-03-31T13:18:41.802Z,93224.95
2018-03-31T13:21:44.280Z,93223.84
2018-03-31T13:24:46.792Z,93220.00
2018-03-31T13:27:50.038Z,93215.32
2018-03-31T13:30:52.525Z,93214.03
2018-03-31T13:33:54.992Z,93210.54
2018-03-31T13:36:57.478Z,93211.07
2018-03-31T13:39:59.952Z,93210.48
2018-03-31T13:43:02.430Z,93205.20
2018-03-31T13:46:04.994Z,93202.99
2018-03-31T13:49:07.486Z,93206.96
2018-03-31T13:52:09.973Z,93194.72
2018-03-31T13:55:13.225Z,93194.34
2018-03-31T13:58:16.504Z,93195.31
2018-03-31T14:01:18.974Z,93191.64
2018-03-31T14:04:21.469Z,93191.08
2018-03-31T14:07:24.818Z,93195.64
2018-03-31T14:10:27.287Z,93199.08
2018-03-31T14:13:29.785Z,93199.72
2018-03-31T14:16:32.273Z,93202.97
2018-03-31T14:19:34.898Z,93203.52
2018-03-31T14:22:38.125Z,93200.38
2018-03-31T14:25:40.605Z,93195.70
2018-03-31T14:28:43.099Z,93195.03
2018-03-31T14:31:45.853Z,93189.10
2018-03-31T14:34:52.115Z,93194.39
2018-03-31T14:37:55.340Z,93185.55
2018-03-31T14:40:57.822Z,93187.75
2018-03-31T14:44:00.288Z,93187.67
2018-03-31T14:47:02.812Z,93183.64
2018-03-31T14:50:05.996Z,93189.50
2018-03-31T14:53:08.451Z,93190.69
2018-03-31T14:56:11.285Z,93192.43
2018-03-31T14:59:13.765Z,93192.38
2018-03-31T15:02:17.019Z,93191.46
2018-03-31T15:05:19.521Z,93196.05
2018-03-31T15:08:21.989Z,93196.61
2018-03-31T15:11:24.504Z,93196.97
2018-03-31T15:14:27.745Z,93189.26
2018-03-31T15:17:30.238Z,93189.97
2018-03-31T15:20:32.730Z,93187.37
2018-03-31T15:23:35.197Z,93192.12
2018-03-31T15:26:37.749Z,93181.06
2018-03-31T15:29:40.970Z,93177.89
2018-03-31T15:32:43.560Z,93184.36
2018-03-31T15:35:46.074Z,93175.56
2018-03-31T15:38:49.384Z,93177.36
2018-03-31T15:41:52.644Z,93173.11
2018-03-31T15:44:55.183Z,93177.63
2018-03-31T15:47:57.646Z,93171.77
2018-03-31T15:51:00.141Z,93179.52
2018-03-31T15:54:02.629Z,93173.06
2018-03-31T15:57:05.107Z,93175.38
2018-03-31T16:00:07.606Z,93178.95
2018-03-31T16:03:10.079Z,93182.75
2018-03-31T16:06:12.818Z,93179.08
2018-03-31T16:09:16.065Z,93188.70
2018-03-31T16:12:18.680Z,93191.31
2018-03-31T16:15:21.938Z,93192.78
2018-03-31T16:18:24.483Z,93190.55
2018-03-31T16:21:27.726Z,93191.78
2018-03-31T16:24:31.391Z,93194.31
2018-03-31T16:27:33.893Z,93191.40
2018-03-31T16:30:36.436Z,93195.49
2018-03-31T16:33:39.698Z,93195.76
2018-03-31T16:36:42.214Z,93194.58
2018-03-31T16:39:45.443Z,93194.58
2018-03-31T16:42:48.035Z,93202.87
2018-03-31T16:45:50.673Z,93206.08
2018-03-31T16:48:53.908Z,93203.59
2018-03-31T16:51:56.435Z,93208.04
2018-03-31T16:54:59.746Z,93211.27
2018-03-31T16:58:02.992Z,93203.28
2018-03-31T17:07:48.737Z,93215.08
2018-03-31T17:10:51.205Z,93220.95
2018-03-31T17:13:53.694Z,93222.99
2018-03-31T17:16:56.212Z,93232.41
2018-03-31T17:19:59.479Z,93232.87
2018-03-31T17:23:01.953Z,93236.19
2018-03-31T17:26:04.436Z,93244.45
2018-03-31T17:29:06.909Z,93247.61
2018-03-31T17:32:09.430Z,93247.52
2018-03-31T17:35:12.697Z,93252.16
2018-03-31T17:38:15.232Z,93259.22
2018-03-31T17:41:17.718Z,93260.48
2018-03-31T17:44:20.192Z,93261.64
2018-03-31T17:47:22.667Z,93266.31
2018-03-31T17:50:25.388Z,93265.55
2018-03-31T17:53:27.910Z,93268.45
2018-03-31T17:56:30.489Z,93276.61
2018-03-31T17:59:32.968Z,93279.42
2018-03-31T18:02:36.249Z,93284.53
2018-03-31T18:05:39.563Z,93292.00
2018-03-31T18:08:42.802Z,93294.64
2018-03-31T18:11:45.269Z,93301.16
2018-03-31T18:14:47.749Z,93309.95
2018-03-31T18:17:50.230Z,93318.58
2018-03-31T18:20:52.773Z,93320.84
2018-03-31T18:23:56.022Z,93321.12
2018-03-31T18:26:58.504Z,93334.81
2018-03-31T18:30:00.984Z,93335.53
2018-03-31T18:33:03.460Z,93343.62
2018-03-31T18:36:06.978Z,93342.31
2018-03-31T18:39:09.469Z,93350.27
2018-03-31T18:42:11.945Z,93356.70
2018-03-31T18:45:14.506Z,93359.59
2018-03-31T18:48:17.737Z,93364.09
2018-03-31T18:51:20.991Z,93366.50
2018-03-31T18:54:23.501Z,93371.66
2018-03-31T18:57:26.757Z,93377.37
2018-03-31T19:00:29.244Z,93380.41
2018-03-31T19:03:32.520Z,93376.83
2018-03-31T19:06:35.018Z,93384.67
2018-03-31T19:09:37.643Z,93382.82
2018-03-31T19:12:40.979Z,93389.50
2018-03-31T19:15:43.546Z,93396.16
2018-03-31T19:18:46.031Z,93399.27
2018-03-31T19:21:48.549Z,93405.80
2018-03-31T19:24:56.641Z,93407.99
2018-03-31T19:27:59.141Z,93419.69
2018-03-31T19:31:02.506Z,93425.64
2018-03-31T19:34:05.025Z,93424.03
2018-03-31T19:37:07.584Z,93432.95
2018-03-31T19:40:11.369Z,93436.91
2018-03-31T19:43:15.097Z,93441.19
2018-03-31T19:46:17.658Z,93444.05
2018-03-31T19:49:20.892Z,93447.91
2018-03-31T19:52:23.814Z,93450.08
2018-03-31T19:55:26.284Z,93454.03
2018-03-31T19:58:28.779Z,93464.28
2018-03-31T20:01:32.082Z,93470.70
2018-03-31T20:04:35.887Z,93476.37
2018-03-31T20:07:38.377Z,93479.02
2018-03-31T20:10:41.719Z,93478.13
2018-03-31T20:13:44.209Z,93482.31
2018-03-31T20:16:46.685Z,93480.61
2018-03-31T20:19:49.184Z,93482.41
2018-03-31T20:22:51.670Z,93485.72
2018-03-31T20:25:54.173Z,93488.05
2018-03-31T20:28:57.479Z,93489.27
2018-03-31T20:31:59.972Z,93488.98
2018-03-31T20:35:02.474Z,93494.80
2018-03-31T20:38:05.022Z,93497.59
2018-03-31T20:41:07.538Z,93498.32
2018-03-31T20:44:10.016Z,93505.02
2018-03-31T20:47:12.486Z,93506.70
2018-03-31T20:50:15.013Z,93500.06
2018-03-31T20:53:18.342Z,93503.79
2018-03-31T20:56:20.855Z,93502.08
2018-03-31T20:59:23.368Z,93506.66
2018-03-31T21:02:26.632Z,93506.72
2018-03-31T21:05:30.677Z,93508.73
2018-03-31T21:08:33.161Z,93507.74
2018-03-31T21:11:35.642Z,93513.01
2018-03-31T21:14:38.214Z,93523.05
2018-03-31T21:17:41.378Z,93523.66
2018-03-31T21:20:46.062Z,93527.50
2018-03-31T21:23:48.677Z,93526.29
2018-03-31T21:26:52.289Z,93535.72
2018-03-31T21:29:54.777Z,93529.69
2018-03-31T21:32:57.542Z,93532.84
2018-03-31T21:36:15.507Z,93529.45
2018-03-31T21:46:19.264Z,93538.51
2018-03-31T21:49:22.135Z,93541.30
2018-03-31T21:52:25.779Z,93536.60
2018-03-31T21:55:28.262Z,93540.02
2018-03-31T21:58:30.809Z,93540.27
2018-03-31T22:01:33.880Z,93545.20
2018-03-31T22:04:37.394Z,93545.17
2018-03-31T22:07:40.792Z,93541.01
2018-03-31T22:10:44.069Z,93544.82
2018-03-31T22:13:52.047Z,93544.75
2018-03-31T22:17:02.034Z,93546.27
2018-03-31T22:20:06.505Z,93550.70
2018-03-31T22:23:08.995Z,93549.36
2018-03-31T22:26:11.479Z,93553.12
2018-03-31T22:29:13.958Z,93555.44
2018-03-31T22:32:16.571Z,93559.86
2018-03-31T22:35:19.848Z,93564.92
2018-03-31T22:38:22.522Z,93563.00
2018-03-31T22:41:25.005Z,93564.06
2018-03-31T22:44:27.620Z,93571.58
2018-03-31T22:47:30.214Z,93566.05
2018-03-31T22:50:32.996Z,93570.00
2018-03-31T22:53:37.469Z,93575.03
2018-03-31T22:56:39.966Z,93578.67
2018-03-31T22:59:42.488Z,93583.05
2018-03-31T23:02:45.445Z,93585.35
2018-03-31T23:05:47.966Z,93578.06
2018-03-31T23:08:51.272Z,93585.05
2018-03-31T23:11:54.949Z,93588.58
2018-03-31T23:14:57.429Z,93593.06
2018-03-31T23:18:00.129Z,93592.39
2018-03-31T23:21:03.377Z,93592.23
2018-03-31T23:24:05.857Z,93598.94
2018-03-31T23:27:08.468Z,93596.70
2018-03-31T23:30:11.021Z,93603.81
2018-03-31T23:33:14.232Z,93608.08
2018-03-31T23:36:17.028Z,93607.76
2018-03-31T23:39:19.713Z,93612.56
2018-03-31T23:42:22.266Z,93614.70
2018-03-31T23:45:26.418Z,93619.11
2018-03-31T23:48:29.026Z,93624.78
2018-03-31T23:51:32.298Z,93625.21
2018-03-31T23:54:34.772Z,93632.58
2018-03-31T23:57:37.312Z,93636.34
